sensor_id;sensor_type;location;lat;lon;timestamp;P1;durP1;ratioP1;P2;durP2;ratioP2
37855;SDS011;23694;43.274;26.924;2024-03-02T00:00:20;34.37;;;16.57;;
37855;SDS011;23694;43.274;26.924;2024-03-02T00:02:49;37.97;;;16.43;;
37855;SDS011;23694;43.274;26.924;2024-03-02T00:05:16;37.13;;;16.93;;
37855;SDS011;23694;43.274;26.924;2024-03-02T00:07:45;38.33;;;15.90;;
37855;SDS011;23694;43.274;26.924;2024-03-02T00:10:19;34.27;;;15.77;;
37855;SDS011;23694;43.274;26.924;2024-03-02T00:12:50;32.40;;;16.57;;
37855;SDS011;23694;43.274;26.924;2024-03-02T00:20:22;35.17;;;14.93;;
37855;SDS011;23694;43.274;26.924;2024-03-02T00:22:49;32.90;;;15.73;;
37855;SDS011;23694;43.274;26.924;2024-03-02T00:25:16;39.33;;;16.00;;
37855;SDS011;23694;43.274;26.924;2024-03-02T00:27:46;37.13;;;16.17;;
37855;SDS011;23694;43.274;26.924;2024-03-02T00:30:56;36.80;;;15.73;;
37855;SDS011;23694;43.274;26.924;2024-03-02T00:33:26;36.73;;;16.77;;
37855;SDS011;23694;43.274;26.924;2024-03-02T00:35:56;37.77;;;17.10;;
37855;SDS011;23694;43.274;26.924;2024-03-02T00:38:22;38.13;;;17.50;;
37855;SDS011;23694;43.274;26.924;2024-03-02T00:40:49;43.43;;;17.20;;
37855;SDS011;23694;43.274;26.924;2024-03-02T00:43:33;34.20;;;16.30;;
37855;SDS011;23694;43.274;26.924;2024-03-02T00:46:04;43.73;;;16.97;;
37855;SDS011;23694;43.274;26.924;2024-03-02T00:48:31;39.37;;;17.93;;
37855;SDS011;23694;43.274;26.924;2024-03-02T00:50:57;40.03;;;20.07;;
37855;SDS011;23694;43.274;26.924;2024-03-02T00:53:25;44.57;;;20.83;;
37855;SDS011;23694;43.274;26.924;2024-03-02T00:55:52;42.67;;;19.33;;
37855;SDS011;23694;43.274;26.924;2024-03-02T00:58:24;42.13;;;20.30;;
37855;SDS011;23694;43.274;26.924;2024-03-02T01:00:52;43.77;;;18.10;;
37855;SDS011;23694;43.274;26.924;2024-03-02T01:03:19;38.43;;;18.00;;
37855;SDS011;23694;43.274;26.924;2024-03-02T01:05:46;44.30;;;18.07;;
37855;SDS011;23694;43.274;26.924;2024-03-02T01:08:12;39.07;;;17.67;;
37855;SDS011;23694;43.274;26.924;2024-03-02T01:10:39;44.10;;;17.90;;
37855;SDS011;23694;43.274;26.924;2024-03-02T01:13:06;43.43;;;18.63;;
37855;SDS011;23694;43.274;26.924;2024-03-02T01:15:33;42.47;;;18.07;;
37855;SDS011;23694;43.274;26.924;2024-03-02T01:18:00;38.37;;;18.57;;
37855;SDS011;23694;43.274;26.924;2024-03-02T01:20:26;44.03;;;19.93;;
37855;SDS011;23694;43.274;26.924;2024-03-02T01:22:53;44.20;;;18.50;;
37855;SDS011;23694;43.274;26.924;2024-03-02T01:25:19;47.57;;;20.30;;
37855;SDS011;23694;43.274;26.924;2024-03-02T01:27:46;44.27;;;18.50;;
37855;SDS011;23694;43.274;26.924;2024-03-02T01:30:12;40.70;;;20.20;;
37855;SDS011;23694;43.274;26.924;2024-03-02T01:32:38;47.60;;;20.93;;
37855;SDS011;23694;43.274;26.924;2024-03-02T01:35:05;48.77;;;20.00;;
37855;SDS011;23694;43.274;26.924;2024-03-02T01:37:32;37.93;;;19.53;;
37855;SDS011;23694;43.274;26.924;2024-03-02T01:39:58;42.90;;;19.33;;
37855;SDS011;23694;43.274;26.924;2024-03-02T01:42:25;44.37;;;20.40;;
37855;SDS011;23694;43.274;26.924;2024-03-02T01:44:51;38.07;;;18.50;;
37855;SDS011;23694;43.274;26.924;2024-03-02T01:47:17;41.70;;;18.57;;
37855;SDS011;23694;43.274;26.924;2024-03-02T01:49:43;34.83;;;18.50;;
37855;SDS011;23694;43.274;26.924;2024-03-02T01:52:09;34.30;;;17.07;;
37855;SDS011;23694;43.274;26.924;2024-03-02T01:54:37;40.67;;;19.23;;
37855;SDS011;23694;43.274;26.924;2024-03-02T01:57:03;39.73;;;18.97;;
37855;SDS011;23694;43.274;26.924;2024-03-02T01:59:29;38.33;;;17.33;;
37855;SDS011;23694;43.274;26.924;2024-03-02T02:01:57;40.80;;;17.87;;
37855;SDS011;23694;43.274;26.924;2024-03-02T02:04:24;32.90;;;17.03;;
37855;SDS011;23694;43.274;26.924;2024-03-02T02:06:54;36.00;;;16.70;;
37855;SDS011;23694;43.274;26.924;2024-03-02T02:09:20;43.40;;;17.60;;
37855;SDS011;23694;43.274;26.924;2024-03-02T02:11:47;41.07;;;18.37;;
37855;SDS011;23694;43.274;26.924;2024-03-02T02:14:13;42.37;;;17.83;;
37855;SDS011;23694;43.274;26.924;2024-03-02T02:16:39;42.37;;;18.30;;
37855;SDS011;23694;43.274;26.924;2024-03-02T02:19:05;39.63;;;17.83;;
37855;SDS011;23694;43.274;26.924;2024-03-02T02:21:32;38.63;;;17.27;;
37855;SDS011;23694;43.274;26.924;2024-03-02T02:23:59;42.07;;;18.60;;
37855;SDS011;23694;43.274;26.924;2024-03-02T02:26:25;42.47;;;17.90;;
37855;SDS011;23694;43.274;26.924;2024-03-02T02:28:51;35.67;;;17.97;;
37855;SDS011;23694;43.274;26.924;2024-03-02T02:31:19;35.47;;;18.30;;
37855;SDS011;23694;43.274;26.924;2024-03-02T02:33:45;34.23;;;17.17;;
37855;SDS011;23694;43.274;26.924;2024-03-02T02:36:11;39.23;;;18.07;;
37855;SDS011;23694;43.274;26.924;2024-03-02T02:38:41;41.57;;;18.87;;
37855;SDS011;23694;43.274;26.924;2024-03-02T02:41:11;39.77;;;19.80;;
37855;SDS011;23694;43.274;26.924;2024-03-02T02:43:37;45.27;;;19.73;;
37855;SDS011;23694;43.274;26.924;2024-03-02T02:46:05;44.37;;;19.30;;
37855;SDS011;23694;43.274;26.924;2024-03-02T02:48:31;44.23;;;20.73;;
37855;SDS011;23694;43.274;26.924;2024-03-02T02:50:57;48.50;;;23.80;;
37855;SDS011;23694;43.274;26.924;2024-03-02T02:53:23;44.93;;;22.87;;
37855;SDS011;23694;43.274;26.924;2024-03-02T02:55:49;50.70;;;24.67;;
37855;SDS011;23694;43.274;26.924;2024-03-02T02:58:16;44.57;;;22.80;;
37855;SDS011;23694;43.274;26.924;2024-03-02T03:00:42;49.23;;;24.47;;
37855;SDS011;23694;43.274;26.924;2024-03-02T03:03:09;45.43;;;22.73;;
37855;SDS011;23694;43.274;26.924;2024-03-02T03:05:35;47.87;;;22.23;;
37855;SDS011;23694;43.274;26.924;2024-03-02T03:08:02;43.07;;;21.43;;
37855;SDS011;23694;43.274;26.924;2024-03-02T03:10:28;49.97;;;22.23;;
37855;SDS011;23694;43.274;26.924;2024-03-02T03:12:59;49.63;;;23.17;;
37855;SDS011;23694;43.274;26.924;2024-03-02T03:15:25;46.63;;;21.93;;
37855;SDS011;23694;43.274;26.924;2024-03-02T03:17:51;43.60;;;20.83;;
37855;SDS011;23694;43.274;26.924;2024-03-02T03:20:19;40.83;;;20.10;;
37855;SDS011;23694;43.274;26.924;2024-03-02T03:22:47;52.27;;;20.47;;
37855;SDS011;23694;43.274;26.924;2024-03-02T03:25:13;42.03;;;19.60;;
37855;SDS011;23694;43.274;26.924;2024-03-02T03:27:48;44.17;;;19.53;;
37855;SDS011;23694;43.274;26.924;2024-03-02T03:30:31;41.30;;;18.67;;
37855;SDS011;23694;43.274;26.924;2024-03-02T03:32:58;39.43;;;18.27;;
37855;SDS011;23694;43.274;26.924;2024-03-02T03:35:25;46.03;;;18.83;;
37855;SDS011;23694;43.274;26.924;2024-03-02T03:37:51;42.80;;;18.43;;
37855;SDS011;23694;43.274;26.924;2024-03-02T03:40:17;34.87;;;17.07;;
37855;SDS011;23694;43.274;26.924;2024-03-02T03:42:44;32.37;;;15.90;;
37855;SDS011;23694;43.274;26.924;2024-03-02T03:45:10;31.83;;;15.50;;
37855;SDS011;23694;43.274;26.924;2024-03-02T03:47:36;42.57;;;17.07;;
37855;SDS011;23694;43.274;26.924;2024-03-02T03:50:03;35.07;;;16.80;;
37855;SDS011;23694;43.274;26.924;2024-03-02T03:52:32;39.40;;;15.23;;
37855;SDS011;23694;43.274;26.924;2024-03-02T03:54:59;40.67;;;15.70;;
37855;SDS011;23694;43.274;26.924;2024-03-02T03:57:26;38.20;;;15.97;;
37855;SDS011;23694;43.274;26.924;2024-03-02T03:59:52;33.83;;;14.67;;
37855;SDS011;23694;43.274;26.924;2024-03-02T04:02:19;31.93;;;14.27;;
37855;SDS011;23694;43.274;26.924;2024-03-02T04:04:46;30.33;;;15.10;;
37855;SDS011;23694;43.274;26.924;2024-03-02T04:07:12;30.77;;;14.80;;
37855;SDS011;23694;43.274;26.924;2024-03-02T04:09:38;31.80;;;14.83;;
37855;SDS011;23694;43.274;26.924;2024-03-02T04:12:04;32.90;;;15.47;;
37855;SDS011;23694;43.274;26.924;2024-03-02T04:14:30;38.90;;;16.50;;
37855;SDS011;23694;43.274;26.924;2024-03-02T04:16:56;36.87;;;15.00;;
37855;SDS011;23694;43.274;26.924;2024-03-02T04:19:23;28.60;;;13.87;;
37855;SDS011;23694;43.274;26.924;2024-03-02T04:21:49;36.03;;;15.27;;
37855;SDS011;23694;43.274;26.924;2024-03-02T04:24:16;35.93;;;14.63;;
37855;SDS011;23694;43.274;26.924;2024-03-02T04:26:43;34.97;;;14.70;;
37855;SDS011;23694;43.274;26.924;2024-03-02T04:29:10;32.17;;;14.37;;
37855;SDS011;23694;43.274;26.924;2024-03-02T04:31:36;33.20;;;14.27;;
37855;SDS011;23694;43.274;26.924;2024-03-02T04:34:02;31.63;;;14.20;;
37855;SDS011;23694;43.274;26.924;2024-03-02T04:36:28;37.77;;;15.23;;
37855;SDS011;23694;43.274;26.924;2024-03-02T04:38:56;41.40;;;16.00;;
37855;SDS011;23694;43.274;26.924;2024-03-02T04:41:22;32.87;;;15.10;;
37855;SDS011;23694;43.274;26.924;2024-03-02T04:43:48;35.30;;;16.53;;
37855;SDS011;23694;43.274;26.924;2024-03-02T04:46:14;38.87;;;17.17;;
37855;SDS011;23694;43.274;26.924;2024-03-02T04:48:41;37.13;;;16.93;;
37855;SDS011;23694;43.274;26.924;2024-03-02T04:51:07;41.20;;;17.60;;
37855;SDS011;23694;43.274;26.924;2024-03-02T04:53:33;39.27;;;17.93;;
37855;SDS011;23694;43.274;26.924;2024-03-02T04:55:59;43.83;;;20.53;;
37855;SDS011;23694;43.274;26.924;2024-03-02T04:58:44;46.30;;;21.27;;
37855;SDS011;23694;43.274;26.924;2024-03-02T05:01:10;41.33;;;18.67;;
37855;SDS011;23694;43.274;26.924;2024-03-02T05:03:36;58.80;;;29.80;;
37855;SDS011;23694;43.274;26.924;2024-03-02T05:06:02;58.83;;;33.57;;
37855;SDS011;23694;43.274;26.924;2024-03-02T05:08:29;63.27;;;41.37;;
37855;SDS011;23694;43.274;26.924;2024-03-02T05:10:55;40.47;;;21.10;;
37855;SDS011;23694;43.274;26.924;2024-03-02T05:13:41;45.73;;;22.77;;
37855;SDS011;23694;43.274;26.924;2024-03-02T05:16:07;48.87;;;23.73;;
37855;SDS011;23694;43.274;26.924;2024-03-02T05:18:33;42.83;;;24.53;;
37855;SDS011;23694;43.274;26.924;2024-03-02T05:21:03;44.30;;;22.70;;
37855;SDS011;23694;43.274;26.924;2024-03-02T05:23:29;46.63;;;24.20;;
37855;SDS011;23694;43.274;26.924;2024-03-02T05:25:56;50.37;;;28.33;;
37855;SDS011;23694;43.274;26.924;2024-03-02T05:28:23;54.97;;;29.50;;
37855;SDS011;23694;43.274;26.924;2024-03-02T05:30:49;46.90;;;24.13;;
37855;SDS011;23694;43.274;26.924;2024-03-02T05:33:15;42.20;;;22.37;;
37855;SDS011;23694;43.274;26.924;2024-03-02T05:35:43;42.47;;;21.53;;
37855;SDS011;23694;43.274;26.924;2024-03-02T05:38:10;41.83;;;20.70;;
37855;SDS011;23694;43.274;26.924;2024-03-02T05:40:36;40.83;;;18.57;;
37855;SDS011;23694;43.274;26.924;2024-03-02T05:43:02;44.77;;;20.70;;
37855;SDS011;23694;43.274;26.924;2024-03-02T05:45:28;41.27;;;18.97;;
37855;SDS011;23694;43.274;26.924;2024-03-02T05:47:56;38.17;;;16.63;;
37855;SDS011;23694;43.274;26.924;2024-03-02T05:50:22;32.43;;;15.43;;
37855;SDS011;23694;43.274;26.924;2024-03-02T05:52:48;36.30;;;14.60;;
37855;SDS011;23694;43.274;26.924;2024-03-02T05:55:14;29.03;;;14.10;;
37855;SDS011;23694;43.274;26.924;2024-03-02T05:57:40;27.90;;;14.60;;
37855;SDS011;23694;43.274;26.924;2024-03-02T06:00:06;35.83;;;15.13;;
37855;SDS011;23694;43.274;26.924;2024-03-02T06:02:51;36.50;;;16.53;;
37855;SDS011;23694;43.274;26.924;2024-03-02T06:05:18;37.30;;;16.23;;
37855;SDS011;23694;43.274;26.924;2024-03-02T06:07:45;43.43;;;18.60;;
37855;SDS011;23694;43.274;26.924;2024-03-02T06:10:11;39.17;;;16.97;;
37855;SDS011;23694;43.274;26.924;2024-03-02T06:12:37;32.80;;;16.03;;
37855;SDS011;23694;43.274;26.924;2024-03-02T06:15:04;34.80;;;15.33;;
37855;SDS011;23694;43.274;26.924;2024-03-02T06:17:34;31.83;;;15.47;;
37855;SDS011;23694;43.274;26.924;2024-03-02T06:20:01;30.23;;;14.93;;
37855;SDS011;23694;43.274;26.924;2024-03-02T06:22:28;33.20;;;14.67;;
37855;SDS011;23694;43.274;26.924;2024-03-02T06:24:54;28.77;;;13.83;;
37855;SDS011;23694;43.274;26.924;2024-03-02T06:27:20;34.23;;;13.47;;
37855;SDS011;23694;43.274;26.924;2024-03-02T06:29:47;29.67;;;14.10;;
37855;SDS011;23694;43.274;26.924;2024-03-02T06:32:14;31.30;;;13.83;;
37855;SDS011;23694;43.274;26.924;2024-03-02T06:34:40;33.93;;;14.00;;
37855;SDS011;23694;43.274;26.924;2024-03-02T06:37:07;34.90;;;14.27;;
37855;SDS011;23694;43.274;26.924;2024-03-02T06:39:33;32.77;;;14.77;;
37855;SDS011;23694;43.274;26.924;2024-03-02T06:42:00;35.17;;;15.07;;
37855;SDS011;23694;43.274;26.924;2024-03-02T06:44:27;35.30;;;14.77;;
37855;SDS011;23694;43.274;26.924;2024-03-02T06:46:54;35.83;;;16.07;;
37855;SDS011;23694;43.274;26.924;2024-03-02T06:49:20;35.13;;;15.87;;
37855;SDS011;23694;43.274;26.924;2024-03-02T06:51:46;32.77;;;14.40;;
37855;SDS011;23694;43.274;26.924;2024-03-02T06:54:13;33.97;;;15.87;;
37855;SDS011;23694;43.274;26.924;2024-03-02T06:56:39;37.07;;;15.57;;
37855;SDS011;23694;43.274;26.924;2024-03-02T06:59:05;30.97;;;15.37;;
37855;SDS011;23694;43.274;26.924;2024-03-02T07:01:33;32.60;;;14.73;;
37855;SDS011;23694;43.274;26.924;2024-03-02T07:04:00;29.50;;;14.87;;
37855;SDS011;23694;43.274;26.924;2024-03-02T07:06:26;32.33;;;15.03;;
37855;SDS011;23694;43.274;26.924;2024-03-02T07:08:52;32.33;;;15.27;;
37855;SDS011;23694;43.274;26.924;2024-03-02T07:11:22;36.07;;;13.43;;
37855;SDS011;23694;43.274;26.924;2024-03-02T07:13:48;31.00;;;14.73;;
37855;SDS011;23694;43.274;26.924;2024-03-02T07:16:14;31.17;;;14.23;;
37855;SDS011;23694;43.274;26.924;2024-03-02T07:18:46;31.20;;;14.27;;
37855;SDS011;23694;43.274;26.924;2024-03-02T07:21:17;31.03;;;14.03;;
37855;SDS011;23694;43.274;26.924;2024-03-02T07:23:44;35.73;;;15.90;;
37855;SDS011;23694;43.274;26.924;2024-03-02T07:26:10;29.63;;;14.50;;
37855;SDS011;23694;43.274;26.924;2024-03-02T07:28:37;32.43;;;15.87;;
37855;SDS011;23694;43.274;26.924;2024-03-02T07:31:04;31.03;;;15.27;;
37855;SDS011;23694;43.274;26.924;2024-03-02T07:33:30;32.90;;;16.10;;
37855;SDS011;23694;43.274;26.924;2024-03-02T07:35:57;28.67;;;15.33;;
37855;SDS011;23694;43.274;26.924;2024-03-02T07:38:26;29.90;;;14.43;;
37855;SDS011;23694;43.274;26.924;2024-03-02T07:40:53;28.97;;;15.03;;
37855;SDS011;23694;43.274;26.924;2024-03-02T07:43:21;32.93;;;14.80;;
37855;SDS011;23694;43.274;26.924;2024-03-02T07:45:47;34.27;;;15.40;;
37855;SDS011;23694;43.274;26.924;2024-03-02T07:48:14;30.73;;;14.80;;
37855;SDS011;23694;43.274;26.924;2024-03-02T07:50:41;27.70;;;14.53;;
37855;SDS011;23694;43.274;26.924;2024-03-02T07:53:09;26.80;;;12.10;;
37855;SDS011;23694;43.274;26.924;2024-03-02T07:55:35;27.43;;;12.33;;
37855;SDS011;23694;43.274;26.924;2024-03-02T07:58:02;24.93;;;12.30;;
37855;SDS011;23694;43.274;26.924;2024-03-02T08:00:30;24.77;;;12.37;;
37855;SDS011;23694;43.274;26.924;2024-03-02T08:02:56;34.47;;;12.83;;
37855;SDS011;23694;43.274;26.924;2024-03-02T08:05:23;27.87;;;13.57;;
37855;SDS011;23694;43.274;26.924;2024-03-02T08:07:49;23.83;;;11.97;;
37855;SDS011;23694;43.274;26.924;2024-03-02T08:10:18;29.60;;;11.13;;
37855;SDS011;23694;43.274;26.924;2024-03-02T08:12:45;23.23;;;11.73;;
37855;SDS011;23694;43.274;26.924;2024-03-02T08:15:11;26.90;;;11.40;;
37855;SDS011;23694;43.274;26.924;2024-03-02T08:17:41;21.33;;;10.00;;
37855;SDS011;23694;43.274;26.924;2024-03-02T08:20:11;27.70;;;11.63;;
37855;SDS011;23694;43.274;26.924;2024-03-02T08:22:38;29.17;;;11.40;;
37855;SDS011;23694;43.274;26.924;2024-03-02T08:25:05;25.13;;;11.23;;
37855;SDS011;23694;43.274;26.924;2024-03-02T08:27:32;20.10;;;10.27;;
37855;SDS011;23694;43.274;26.924;2024-03-02T08:29:58;20.07;;;10.03;;
37855;SDS011;23694;43.274;26.924;2024-03-02T08:32:24;27.43;;;12.17;;
37855;SDS011;23694;43.274;26.924;2024-03-02T08:34:51;23.97;;;10.93;;
37855;SDS011;23694;43.274;26.924;2024-03-02T08:37:17;23.17;;;10.67;;
37855;SDS011;23694;43.274;26.924;2024-03-02T08:39:44;28.63;;;10.73;;
37855;SDS011;23694;43.274;26.924;2024-03-02T08:42:11;20.43;;;10.37;;
37855;SDS011;23694;43.274;26.924;2024-03-02T08:44:40;30.33;;;9.73;;
37855;SDS011;23694;43.274;26.924;2024-03-02T08:47:07;22.30;;;10.60;;
37855;SDS011;23694;43.274;26.924;2024-03-02T08:49:33;23.23;;;10.70;;
37855;SDS011;23694;43.274;26.924;2024-03-02T08:51:59;23.03;;;10.20;;
37855;SDS011;23694;43.274;26.924;2024-03-02T08:54:26;26.80;;;11.17;;
37855;SDS011;23694;43.274;26.924;2024-03-02T08:56:52;26.60;;;11.00;;
37855;SDS011;23694;43.274;26.924;2024-03-02T08:59:19;23.90;;;10.10;;
37855;SDS011;23694;43.274;26.924;2024-03-02T09:01:45;18.87;;;10.03;;
37855;SDS011;23694;43.274;26.924;2024-03-02T09:04:11;16.53;;;7.90;;
37855;SDS011;23694;43.274;26.924;2024-03-02T09:06:38;20.87;;;9.10;;
37855;SDS011;23694;43.274;26.924;2024-03-02T09:09:04;17.27;;;7.97;;
37855;SDS011;23694;43.274;26.924;2024-03-02T09:11:33;22.07;;;9.53;;
37855;SDS011;23694;43.274;26.924;2024-03-02T09:14:00;20.77;;;9.73;;
37855;SDS011;23694;43.274;26.924;2024-03-02T09:16:26;16.57;;;8.57;;
37855;SDS011;23694;43.274;26.924;2024-03-02T09:18:56;20.20;;;8.57;;
37855;SDS011;23694;43.274;26.924;2024-03-02T09:21:23;23.67;;;9.30;;
37855;SDS011;23694;43.274;26.924;2024-03-02T09:23:49;24.20;;;9.20;;
37855;SDS011;23694;43.274;26.924;2024-03-02T09:26:15;18.27;;;8.90;;
37855;SDS011;23694;43.274;26.924;2024-03-02T09:28:43;18.37;;;9.10;;
37855;SDS011;23694;43.274;26.924;2024-03-02T09:31:09;17.57;;;8.77;;
37855;SDS011;23694;43.274;26.924;2024-03-02T09:33:35;18.83;;;9.10;;
37855;SDS011;23694;43.274;26.924;2024-03-02T09:36:02;15.83;;;7.93;;
37855;SDS011;23694;43.274;26.924;2024-03-02T09:38:28;20.73;;;9.33;;
37855;SDS011;23694;43.274;26.924;2024-03-02T09:40:55;16.17;;;7.63;;
37855;SDS011;23694;43.274;26.924;2024-03-02T09:43:21;20.03;;;8.20;;
37855;SDS011;23694;43.274;26.924;2024-03-02T09:45:47;17.97;;;8.17;;
37855;SDS011;23694;43.274;26.924;2024-03-02T09:48:14;16.07;;;8.10;;
37855;SDS011;23694;43.274;26.924;2024-03-02T09:50:44;19.57;;;7.10;;
37855;SDS011;23694;43.274;26.924;2024-03-02T09:53:10;19.97;;;8.53;;
37855;SDS011;23694;43.274;26.924;2024-03-02T09:55:38;23.30;;;9.30;;
37855;SDS011;23694;43.274;26.924;2024-03-02T09:58:08;20.07;;;9.20;;
37855;SDS011;23694;43.274;26.924;2024-03-02T10:00:35;18.27;;;7.43;;
37855;SDS011;23694;43.274;26.924;2024-03-02T10:03:01;23.27;;;8.57;;
37855;SDS011;23694;43.274;26.924;2024-03-02T10:05:28;22.40;;;9.47;;
37855;SDS011;23694;43.274;26.924;2024-03-02T10:08:01;24.70;;;8.07;;
37855;SDS011;23694;43.274;26.924;2024-03-02T10:10:35;19.90;;;8.27;;
37855;SDS011;23694;43.274;26.924;2024-03-02T10:13:07;21.43;;;7.97;;
37855;SDS011;23694;43.274;26.924;2024-03-02T10:15:38;17.27;;;7.60;;
37855;SDS011;23694;43.274;26.924;2024-03-02T10:18:10;19.30;;;8.17;;
37855;SDS011;23694;43.274;26.924;2024-03-02T10:20:41;16.87;;;7.17;;
37855;SDS011;23694;43.274;26.924;2024-03-02T10:25:41;13.97;;;7.10;;
37855;SDS011;23694;43.274;26.924;2024-03-02T10:28:08;17.90;;;6.80;;
37855;SDS011;23694;43.274;26.924;2024-03-02T10:30:34;16.40;;;6.77;;
37855;SDS011;23694;43.274;26.924;2024-03-02T10:33:02;12.30;;;6.27;;
37855;SDS011;23694;43.274;26.924;2024-03-02T10:35:28;16.90;;;6.60;;
37855;SDS011;23694;43.274;26.924;2024-03-02T10:38:00;13.07;;;6.50;;
37855;SDS011;23694;43.274;26.924;2024-03-02T10:40:29;16.27;;;6.95;;
37855;SDS011;23694;43.274;26.924;2024-03-02T10:42:55;13.13;;;6.47;;
37855;SDS011;23694;43.274;26.924;2024-03-02T10:45:23;14.97;;;6.60;;
37855;SDS011;23694;43.274;26.924;2024-03-02T10:47:50;14.27;;;5.97;;
37855;SDS011;23694;43.274;26.924;2024-03-02T10:50:17;13.40;;;6.73;;
37855;SDS011;23694;43.274;26.924;2024-03-02T10:52:43;17.27;;;6.90;;
37855;SDS011;23694;43.274;26.924;2024-03-02T10:55:09;16.37;;;7.20;;
37855;SDS011;23694;43.274;26.924;2024-03-02T10:57:45;15.70;;;6.77;;
37855;SDS011;23694;43.274;26.924;2024-03-02T11:00:17;17.03;;;7.33;;
37855;SDS011;23694;43.274;26.924;2024-03-02T11:02:56;15.73;;;7.00;;
37855;SDS011;23694;43.274;26.924;2024-03-02T11:05:26;15.10;;;7.03;;
37855;SDS011;23694;43.274;26.924;2024-03-02T11:08:00;14.87;;;7.37;;
37855;SDS011;23694;43.274;26.924;2024-03-02T11:10:52;18.30;;;7.30;;
37855;SDS011;23694;43.274;26.924;2024-03-02T11:13:32;18.90;;;7.20;;
37855;SDS011;23694;43.274;26.924;2024-03-02T11:15:59;17.13;;;8.07;;
37855;SDS011;23694;43.274;26.924;2024-03-02T11:18:32;19.53;;;8.73;;
37855;SDS011;23694;43.274;26.924;2024-03-02T11:20:59;19.13;;;8.27;;
37855;SDS011;23694;43.274;26.924;2024-03-02T11:23:32;14.03;;;6.20;;
37855;SDS011;23694;43.274;26.924;2024-03-02T11:26:18;16.67;;;8.37;;
37855;SDS011;23694;43.274;26.924;2024-03-02T11:28:47;19.47;;;7.83;;
37855;SDS011;23694;43.274;26.924;2024-03-02T11:31:14;16.90;;;7.60;;
37855;SDS011;23694;43.274;26.924;2024-03-02T11:33:41;13.73;;;7.13;;
37855;SDS011;23694;43.274;26.924;2024-03-02T11:36:09;16.67;;;7.47;;
37855;SDS011;23694;43.274;26.924;2024-03-02T11:38:35;15.97;;;7.90;;
37855;SDS011;23694;43.274;26.924;2024-03-02T11:41:03;17.00;;;8.73;;
37855;SDS011;23694;43.274;26.924;2024-03-02T11:43:37;15.70;;;7.87;;
37855;SDS011;23694;43.274;26.924;2024-03-02T11:46:05;17.93;;;7.90;;
37855;SDS011;23694;43.274;26.924;2024-03-02T11:48:35;16.93;;;8.43;;
37855;SDS011;23694;43.274;26.924;2024-03-02T11:51:02;17.23;;;9.23;;
37855;SDS011;23694;43.274;26.924;2024-03-02T11:53:29;17.17;;;8.60;;
37855;SDS011;23694;43.274;26.924;2024-03-02T11:55:58;16.43;;;8.60;;
37855;SDS011;23694;43.274;26.924;2024-03-02T11:58:24;23.43;;;9.30;;
37855;SDS011;23694;43.274;26.924;2024-03-02T12:00:53;19.70;;;9.43;;
37855;SDS011;23694;43.274;26.924;2024-03-02T12:03:22;17.87;;;9.30;;
37855;SDS011;23694;43.274;26.924;2024-03-02T12:05:52;21.40;;;9.23;;
37855;SDS011;23694;43.274;26.924;2024-03-02T12:08:18;21.93;;;8.77;;
37855;SDS011;23694;43.274;26.924;2024-03-02T12:11:01;34.00;;;21.27;;
37855;SDS011;23694;43.274;26.924;2024-03-02T12:13:28;17.73;;;8.77;;
37855;SDS011;23694;43.274;26.924;2024-03-02T12:15:55;18.50;;;9.27;;
37855;SDS011;23694;43.274;26.924;2024-03-02T12:18:22;21.67;;;8.87;;
37855;SDS011;23694;43.274;26.924;2024-03-02T12:20:49;15.37;;;9.03;;
37855;SDS011;23694;43.274;26.924;2024-03-02T12:23:18;16.10;;;7.97;;
37855;SDS011;23694;43.274;26.924;2024-03-02T12:25:45;17.87;;;7.70;;
37855;SDS011;23694;43.274;26.924;2024-03-02T12:28:12;18.13;;;10.07;;
37855;SDS011;23694;43.274;26.924;2024-03-02T12:30:38;16.00;;;8.50;;
37855;SDS011;23694;43.274;26.924;2024-03-02T12:33:05;15.53;;;7.47;;
37855;SDS011;23694;43.274;26.924;2024-03-02T12:35:31;19.47;;;8.97;;
37855;SDS011;23694;43.274;26.924;2024-03-02T12:37:57;19.77;;;7.90;;
37855;SDS011;23694;43.274;26.924;2024-03-02T12:40:24;16.47;;;7.80;;
37855;SDS011;23694;43.274;26.924;2024-03-02T12:42:50;16.37;;;8.77;;
37855;SDS011;23694;43.274;26.924;2024-03-02T12:45:16;16.93;;;7.27;;
37855;SDS011;23694;43.274;26.924;2024-03-02T12:47:49;17.70;;;7.43;;
37855;SDS011;23694;43.274;26.924;2024-03-02T12:50:17;14.57;;;7.00;;
37855;SDS011;23694;43.274;26.924;2024-03-02T12:52:43;12.47;;;6.10;;
37855;SDS011;23694;43.274;26.924;2024-03-02T12:55:09;14.77;;;6.07;;
37855;SDS011;23694;43.274;26.924;2024-03-02T12:57:36;11.40;;;6.07;;
37855;SDS011;23694;43.274;26.924;2024-03-02T13:00:05;12.77;;;6.40;;
37855;SDS011;23694;43.274;26.924;2024-03-02T13:02:35;13.07;;;6.03;;
37855;SDS011;23694;43.274;26.924;2024-03-02T13:05:02;14.03;;;6.33;;
37855;SDS011;23694;43.274;26.924;2024-03-02T13:07:29;14.10;;;6.40;;
37855;SDS011;23694;43.274;26.924;2024-03-02T13:09:55;17.33;;;6.90;;
37855;SDS011;23694;43.274;26.924;2024-03-02T13:12:22;17.27;;;7.77;;
37855;SDS011;23694;43.274;26.924;2024-03-02T13:14:54;19.63;;;7.90;;
37855;SDS011;23694;43.274;26.924;2024-03-02T13:17:20;13.33;;;6.20;;
37855;SDS011;23694;43.274;26.924;2024-03-02T13:19:56;13.97;;;7.07;;
37855;SDS011;23694;43.274;26.924;2024-03-02T13:22:24;14.53;;;7.10;;
37855;SDS011;23694;43.274;26.924;2024-03-02T13:24:53;10.80;;;5.60;;
37855;SDS011;23694;43.274;26.924;2024-03-02T13:27:23;17.60;;;7.30;;
37855;SDS011;23694;43.274;26.924;2024-03-02T13:29:50;16.30;;;6.33;;
37855;SDS011;23694;43.274;26.924;2024-03-02T13:32:17;13.07;;;5.90;;
37855;SDS011;23694;43.274;26.924;2024-03-02T13:34:49;18.67;;;6.87;;
37855;SDS011;23694;43.274;26.924;2024-03-02T13:37:16;9.93;;;4.97;;
37855;SDS011;23694;43.274;26.924;2024-03-02T13:39:42;14.30;;;5.77;;
37855;SDS011;23694;43.274;26.924;2024-03-02T13:42:08;11.70;;;6.30;;
37855;SDS011;23694;43.274;26.924;2024-03-02T13:44:36;18.20;;;6.50;;
37855;SDS011;23694;43.274;26.924;2024-03-02T13:47:03;19.53;;;8.70;;
37855;SDS011;23694;43.274;26.924;2024-03-02T13:49:30;16.90;;;6.67;;
37855;SDS011;23694;43.274;26.924;2024-03-02T13:52:05;12.93;;;5.80;;
37855;SDS011;23694;43.274;26.924;2024-03-02T13:54:43;17.00;;;7.00;;
37855;SDS011;23694;43.274;26.924;2024-03-02T13:57:11;18.50;;;10.70;;
37855;SDS011;23694;43.274;26.924;2024-03-02T13:59:38;15.77;;;8.20;;
37855;SDS011;23694;43.274;26.924;2024-03-02T14:02:05;14.80;;;7.17;;
37855;SDS011;23694;43.274;26.924;2024-03-02T14:04:32;11.20;;;6.23;;
37855;SDS011;23694;43.274;26.924;2024-03-02T14:06:59;17.57;;;7.83;;
37855;SDS011;23694;43.274;26.924;2024-03-02T14:09:26;13.87;;;6.27;;
37855;SDS011;23694;43.274;26.924;2024-03-02T14:11:53;15.63;;;6.37;;
37855;SDS011;23694;43.274;26.924;2024-03-02T14:14:20;19.17;;;8.40;;
37855;SDS011;23694;43.274;26.924;2024-03-02T14:16:46;17.27;;;8.70;;
37855;SDS011;23694;43.274;26.924;2024-03-02T14:19:12;18.60;;;7.63;;
37855;SDS011;23694;43.274;26.924;2024-03-02T14:21:39;14.77;;;6.83;;
37855;SDS011;23694;43.274;26.924;2024-03-02T14:24:06;13.83;;;7.10;;